Urb Bunker, Puerto Rico
Current Conditions -  °F | °C
As of 3:56 PM on Monday 24 Nov 2014 (Local Time) from TJSJ Reporting Station
Overcast Overcast  
Wind Chill: 79°   Ceiling: 4600
Heat Index: 83°   Visibility: 10mi
Dew Point: 76°   Wind: 12mph
Humidity: 90%   Direction: 80°E
Pressure: 29.99"   Gusts: NA
Location:  18.2361°N, 66.0369°W
Report Text: TJSJ 241956Z 08010KT 10SM SCT018 BKN046 OVC065 26/24 A2999 RMK AO2 RAE13B41E48 SLP154 VCSH S NW P0002 T02610244
Loading
Personal Weather Stations






























Interactive Weather Map New forecast layout! Learn more

10-Day Weather Forecast

Advertisements
Track Severe Weather on mobile